Time;durP1;ratioP1;P1;durP2;ratioP2;P2;SDS_P1;SDS_P2;PMS_P1;PMS_P2;Temp;Humidity;BMP_temperature;BMP_pressure;BME280_temperature;BME280_humidity;BME280_pressure;Samples;Min_cycle;Max_cycle;Signal;HPM_P1;HPM_P2
2023/10/06 00:01:42;;;;;;;7.50;1.67;;;14.40;99.90;;;;;;5077331;28;20500;-80
2023/10/06 00:04:09;;;;;;;5.65;1.48;;;13.90;99.90;;;;;;5076969;28;20032;-80
2023/10/06 00:06:40;;;;;;;11.95;1.13;;;14.10;99.90;;;;;;5076770;28;20072;-80
2023/10/06 00:09:06;;;;;;;4.43;1.40;;;13.80;99.90;;;;;;5095610;28;20081;-80
2023/10/06 00:11:32;;;;;;;5.22;1.95;;;13.80;99.90;;;;;;5077294;28;20020;-79
2023/10/06 00:14:04;;;;;;;11.13;1.50;;;13.70;99.90;;;;;;5094933;28;20549;-80
2023/10/06 00:16:38;;;;;;;6.65;1.00;;;13.70;99.90;;;;;;5095062;28;20028;-80
2023/10/06 00:19:21;;;;;;;3.22;1.00;;;13.70;99.90;;;;;;5077084;28;20085;-80
2023/10/06 00:21:53;;;;;;;7.18;1.42;;;13.70;99.90;;;;;;5076738;28;20028;-80
2023/10/06 00:24:25;;;;;;;6.43;1.20;;;;;;;;;;5077161;28;20016;-80
2023/10/06 00:26:52;;;;;;;4.45;1.00;;;13.60;99.90;;;;;;5077178;28;20024;-80
2023/10/06 00:29:21;;;;;;;4.40;1.10;;;13.60;99.90;;;;;;5095584;28;20078;-80
2023/10/06 00:31:48;;;;;;;7.97;2.08;;;13.60;99.90;;;;;;5095955;28;20399;-80
2023/10/06 00:34:20;;;;;;;8.95;1.55;;;13.60;99.90;;;;;;5080884;28;20023;-80
2023/10/06 00:36:51;;;;;;;8.63;2.30;;;13.80;99.90;;;;;;5080636;28;20096;-80
2023/10/06 00:39:22;;;;;;;3.67;1.08;;;13.50;99.90;;;;;;5080806;28;20056;-80
2023/10/06 00:41:55;;;;;;;5.80;1.50;;;13.60;99.90;;;;;;5099377;28;20020;-80
2023/10/06 00:44:21;;;;;;;3.80;0.90;;;13.50;99.90;;;;;;5080827;28;20506;-80
2023/10/06 00:46:47;;;;;;;8.93;1.70;;;13.60;99.90;;;;;;5099141;28;20020;-80
2023/10/06 00:49:13;;;;;;;6.80;1.63;;;15.60;99.90;;;;;;5080382;28;20035;-80
2023/10/06 00:51:41;;;;;;;4.75;1.42;;;13.90;99.90;;;;;;5080476;28;20089;-80
2023/10/06 00:54:07;;;;;;;7.75;1.52;;;13.50;99.90;;;;;;5080347;28;20483;-80
2023/10/06 00:56:33;;;;;;;6.07;1.23;;;13.60;99.90;;;;;;5098774;28;20032;-80
2023/10/06 00:59:03;;;;;;;6.88;1.83;;;13.60;99.90;;;;;;5098708;28;20475;-80
2023/10/06 01:01:29;;;;;;;5.65;1.67;;;13.60;99.90;;;;;;5080187;28;20016;-80
2023/10/06 01:04:01;;;;;;;4.72;1.50;;;13.70;99.90;;;;;;5080663;28;20039;-80
2023/10/06 01:06:35;;;;;;;6.78;1.92;;;14.50;99.90;;;;;;5080774;28;20038;-80
2023/10/06 01:11:46;;;;;;;4.85;1.40;;;13.60;99.90;;;;;;5098904;28;20035;-80
2023/10/06 01:14:21;;;;;;;2.90;1.40;;;13.60;99.90;;;;;;5079615;28;20024;-80
2023/10/06 01:16:49;;;;;;;4.03;1.10;;;14.20;99.90;;;;;;5098046;28;20028;-80
2023/10/06 01:19:17;;;;;;;7.80;1.27;;;13.60;99.90;;;;;;5098229;28;20090;-80
2023/10/06 01:21:47;;;;;;;6.50;2.03;;;13.50;99.90;;;;;;5098107;28;20476;-80
2023/10/06 01:24:26;;;;;;;8.82;1.88;;;13.20;99.90;;;;;;5098244;28;20024;-81
2023/10/06 01:27:07;;;;;;;6.55;1.92;;;13.50;99.90;;;;;;5079646;28;20437;-80
2023/10/06 01:29:37;;;;;;;7.65;1.05;;;13.50;99.90;;;;;;5079774;28;20031;-80
2023/10/06 01:32:05;;;;;;;9.23;1.33;;;16.10;99.90;;;;;;5080077;28;20019;-84
2023/10/06 01:34:38;;;;;;;4.57;0.93;;;13.50;99.90;;;;;;5080614;28;20024;-82
2023/10/06 01:37:11;;;;;;;7.13;0.80;;;13.40;99.90;;;;;;5080633;28;20031;-83
2023/10/06 01:39:37;;;;;;;6.95;1.30;;;13.40;99.90;;;;;;5080824;28;20036;-83
2023/10/06 01:42:09;;;;;;;7.38;1.15;;;16.00;99.90;;;;;;5081183;28;20020;-83
2023/10/06 01:44:35;;;;;;;8.95;1.63;;;13.40;99.90;;;;;;5098403;28;20028;-83
2023/10/06 01:47:05;;;;;;;5.20;1.90;;;13.40;99.90;;;;;;5081006;28;20012;-83
2023/10/06 01:49:33;;;;;;;7.45;1.33;;;15.00;99.90;;;;;;5098937;28;20020;-83
2023/10/06 01:52:02;;;;;;;11.90;1.67;;;13.40;99.90;;;;;;5098607;28;20521;-83
2023/10/06 01:54:34;;;;;;;5.72;1.50;;;13.40;99.90;;;;;;5079968;28;20368;-83
2023/10/06 01:57:11;;;;;;;3.92;1.40;;;13.40;99.90;;;;;;5081138;28;20035;-83
2023/10/06 01:59:37;;;;;;;8.10;1.08;;;13.30;99.90;;;;;;5098444;28;20073;-83
2023/10/06 02:02:07;;;;;;;3.67;1.17;;;13.20;99.90;;;;;;5098221;28;20095;-83
2023/10/06 02:04:42;;;;;;;8.43;1.40;;;13.30;99.90;;;;;;5079787;28;20085;-83
2023/10/06 02:07:10;;;;;;;5.40;2.10;;;13.30;99.90;;;;;;5099044;28;20534;-84
2023/10/06 02:09:37;;;;;;;4.88;0.90;;;13.30;99.90;;;;;;5079724;28;20079;-83
2023/10/06 02:12:05;;;;;;;3.30;0.82;;;13.30;99.90;;;;;;5079972;28;20055;-84
2023/10/06 02:14:31;;;;;;;7.18;1.20;;;13.30;99.90;;;;;;5079981;28;20056;-84
2023/10/06 02:16:59;;;;;;;4.70;0.90;;;13.20;99.90;;;;;;5079745;28;20028;-83
2023/10/06 02:19:28;;;;;;;4.00;0.68;;;13.30;99.90;;;;;;5079605;28;20048;-83
2023/10/06 02:21:54;;;;;;;7.30;1.30;;;14.00;99.90;;;;;;5079684;28;20052;-83
2023/10/06 02:24:20;;;;;;;4.38;0.68;;;13.20;99.90;;;;;;5097772;28;20031;-83
2023/10/06 02:27:05;;;;;;;8.82;1.52;;;13.10;99.90;;;;;;5079863;28;20043;-83
2023/10/06 02:29:30;;;;;;;4.93;0.68;;;14.80;99.90;;;;;;5098430;28;20437;-83
2023/10/06 02:32:06;;;;;;;5.38;1.08;;;13.50;99.90;;;;;;5079797;28;20114;-83
2023/10/06 02:34:35;;;;;;;9.10;1.05;;;13.10;99.90;;;;;;5097871;28;20072;-84
2023/10/06 02:37:02;;;;;;;4.90;0.88;;;14.90;99.90;;;;;;5079235;28;20031;-83
2023/10/06 02:39:28;;;;;;;2.88;0.80;;;15.30;99.90;;;;;;5079144;28;20028;-83
2023/10/06 02:42:02;;;;;;;6.43;1.42;;;15.90;99.90;;;;;;5097504;28;20012;-82
2023/10/06 02:44:29;;;;;;;6.55;1.75;;;13.10;99.90;;;;;;5097657;28;20017;-82
2023/10/06 02:46:59;;;;;;;7.53;1.40;;;13.10;99.90;;;;;;5079498;28;20027;-83
2023/10/06 02:49:31;;;;;;;3.72;1.10;;;13.00;99.90;;;;;;5078942;28;20479;-83
2023/10/06 02:52:20;;;;;;;6.82;1.45;;;15.00;99.90;;;;;;5098163;28;20127;-83
2023/10/06 02:57:50;;;;;;;8.13;1.65;;;13.50;99.90;;;;;;5053196;28;20115;-85
2023/10/06 03:02:55;;;;;;;7.43;1.02;;;13.00;99.90;;;;;;5096918;28;20066;-83
2023/10/06 03:05:38;;;;;;;9.50;2.10;;;13.80;99.90;;;;;;5078678;28;20081;-83
2023/10/06 03:08:10;;;;;;;8.95;1.67;;;15.40;99.90;;;;;;5078613;28;20454;-83
2023/10/06 03:10:42;;;;;;;6.13;1.33;;;13.00;99.90;;;;;;5078793;28;20483;-84
2023/10/06 03:13:14;;;;;;;2.75;0.90;;;13.00;99.90;;;;;;5079302;28;20027;-83
2023/10/06 03:15:46;;;;;;;8.30;1.63;;;13.00;99.90;;;;;;5079006;28;20029;-84
2023/10/06 03:18:13;;;;;;;5.05;1.10;;;12.90;99.90;;;;;;5079208;28;20114;-83
2023/10/06 03:20:46;;;;;;;8.25;1.20;;;13.80;99.90;;;;;;5098101;28;20012;-83
2023/10/06 03:26:03;;;;;;;5.32;1.23;;;13.00;99.90;;;;;;5096753;28;20046;-84
2023/10/06 03:28:38;;;;;;;5.05;1.08;;;15.70;99.90;;;;;;5078240;28;20069;-83
2023/10/06 03:33:55;;;;;;;15.05;1.77;;;13.10;99.90;;;;;;5096347;28;20495;-84
2023/10/06 03:36:47;;;;;;;5.97;1.88;;;13.10;99.90;;;;;;5078175;28;20064;-83
2023/10/06 03:39:10;;;;;;;6.97;1.38;;;13.10;99.90;;;;;;5096095;28;20032;-83
2023/10/06 03:41:37;;;;;;;13.88;2.05;;;;;;;;;;5078504;28;20028;-83
2023/10/06 03:44:04;;;;;;;5.78;1.83;;;13.20;99.90;;;;;;5078514;28;20020;-84
2023/10/06 03:46:37;;;;;;;8.07;1.40;;;13.20;99.90;;;;;;5078082;28;20099;-83
2023/10/06 03:49:07;;;;;;;4.45;1.30;;;13.30;99.90;;;;;;5096373;28;20021;-83
2023/10/06 03:51:38;;;;;;;7.72;1.45;;;13.30;99.90;;;;;;5096545;28;20099;-82
2023/10/06 03:54:04;;;;;;;5.20;1.65;;;13.90;99.90;;;;;;5078195;28;20035;-83
2023/10/06 03:56:30;;;;;;;8.73;1.40;;;13.40;99.90;;;;;;5078344;28;20066;-84
2023/10/06 03:58:56;;;;;;;7.05;1.40;;;15.90;99.90;;;;;;5078441;28;20024;-83
2023/10/06 04:01:27;;;;;;;10.55;1.85;;;13.30;99.90;;;;;;5096335;28;20506;-83
2023/10/06 04:03:59;;;;;;;12.23;1.80;;;13.50;99.90;;;;;;5096575;28;20095;-83
2023/10/06 04:06:35;;;;;;;9.80;1.52;;;14.00;99.90;;;;;;5078629;28;20044;-84
2023/10/06 04:09:01;;;;;;;7.10;1.63;;;13.30;99.90;;;;;;5082472;28;20020;-83
2023/10/06 04:11:29;;;;;;;10.57;2.40;;;13.70;99.90;;;;;;5100193;28;20055;-84
2023/10/06 04:13:55;;;;;;;8.18;1.98;;;15.50;99.90;;;;;;5082504;28;20491;-83
2023/10/06 04:16:23;;;;;;;6.90;1.52;;;14.10;99.90;;;;;;5099780;28;20028;-84
2023/10/06 04:18:48;;;;;;;12.55;1.63;;;13.30;99.90;;;;;;5081938;28;20065;-83
2023/10/06 04:21:14;;;;;;;11.45;2.20;;;13.50;99.90;;;;;;5100339;28;20076;-83
2023/10/06 04:23:43;;;;;;;6.28;1.58;;;14.70;99.90;;;;;;5082294;28;20546;-83
2023/10/06 04:26:10;;;;;;;12.35;1.88;;;13.80;99.90;;;;;;5081883;28;20506;-82
2023/10/06 04:28:36;;;;;;;8.07;1.63;;;13.40;99.90;;;;;;5100103;28;20027;-83
2023/10/06 04:31:02;;;;;;;7.38;1.58;;;13.40;99.90;;;;;;5082190;28;20028;-83
2023/10/06 04:33:28;;;;;;;5.93;1.30;;;13.50;99.90;;;;;;5100487;28;20046;-84
2023/10/06 04:36:12;;;;;;;5.85;1.33;;;14.10;99.90;;;;;;5081922;28;20116;-83
2023/10/06 04:38:39;;;;;;;6.40;1.00;;;13.40;99.90;;;;;;5099693;28;20033;-84
2023/10/06 04:41:09;;;;;;;8.68;1.45;;;13.40;99.90;;;;;;5081389;28;20030;-84
2023/10/06 04:43:35;;;;;;;6.57;1.48;;;13.40;99.90;;;;;;5081763;28;20012;-83
2023/10/06 04:46:05;;;;;;;6.65;1.10;;;13.50;99.90;;;;;;5081518;28;20051;-83
2023/10/06 04:48:35;;;;;;;4.82;1.35;;;13.40;99.90;;;;;;5082404;28;20016;-83
2023/10/06 04:51:03;;;;;;;6.55;1.35;;;13.30;99.90;;;;;;5081871;28;20479;-83
2023/10/06 04:53:30;;;;;;;7.95;1.10;;;13.30;99.90;;;;;;5082462;28;20365;-83
2023/10/06 04:55:55;;;;;;;3.42;1.70;;;13.30;99.90;;;;;;5081191;28;20201;-84
2023/10/06 04:58:21;;;;;;;6.18;1.75;;;14.80;99.90;;;;;;5081458;28;20020;-83
2023/10/06 05:00:52;;;;;;;6.38;1.88;;;13.60;99.90;;;;;;5099696;28;20043;-82
2023/10/06 05:03:18;;;;;;;4.55;1.58;;;13.30;99.90;;;;;;5099988;28;20020;-83
2023/10/06 05:05:43;;;;;;;4.30;0.88;;;13.30;99.90;;;;;;5081248;28;20047;-83
2023/10/06 05:08:09;;;;;;;10.13;2.05;;;13.40;99.90;;;;;;5082032;28;20032;-83
2023/10/06 05:10:39;;;;;;;8.40;1.80;;;13.30;99.90;;;;;;5081578;28;20016;-83
2023/10/06 05:13:06;;;;;;;6.10;1.17;;;13.30;99.90;;;;;;5099727;28;20035;-84
2023/10/06 05:15:36;;;;;;;3.92;1.15;;;13.20;99.90;;;;;;5081694;28;20032;-83
2023/10/06 05:18:04;;;;;;;6.88;1.60;;;13.20;99.90;;;;;;5099550;28;20020;-83
2023/10/06 05:20:31;;;;;;;7.45;1.75;;;13.10;99.90;;;;;;5081206;28;20016;-83
2023/10/06 05:23:10;;;;;;;7.35;1.58;;;14.20;99.90;;;;;;5081859;28;20020;-82
2023/10/06 05:25:36;;;;;;;;;;;13.20;99.90;;;;;;5100023;28;20024;-83
2023/10/06 05:28:03;;;;;;;7.07;1.63;;;14.10;99.90;;;;;;5080974;28;19950;-83
2023/10/06 05:30:29;;;;;;;7.95;1.25;;;13.20;99.90;;;;;;5081408;28;20055;-83
2023/10/06 05:32:59;;;;;;;5.50;1.80;;;13.20;99.90;;;;;;5080550;28;20020;-83
2023/10/06 05:35:38;;;;;;;8.15;1.48;;;15.10;99.90;;;;;;5080168;28;20016;-83
2023/10/06 05:38:05;;;;;;;5.45;1.73;;;13.30;99.90;;;;;;5081058;28;20028;-83
2023/10/06 05:40:31;;;;;;;9.23;1.40;;;13.50;99.90;;;;;;5080536;28;20444;-83
2023/10/06 05:42:57;;;;;;;6.35;1.77;;;14.90;99.90;;;;;;5081391;28;20034;-83
2023/10/06 05:45:23;;;;;;;6.70;1.88;;;13.60;99.90;;;;;;5081309;28;20027;-83
2023/10/06 05:47:50;;;;;;;5.72;1.30;;;14.20;99.90;;;;;;5080963;28;20027;-83
2023/10/06 05:50:29;;;;;;;4.03;1.10;;;13.40;99.90;;;;;;5080117;28;20024;-83
2023/10/06 05:52:58;;;;;;;8.05;1.58;;;13.40;99.90;;;;;;5080485;28;20020;-82
2023/10/06 05:55:35;;;;;;;9.73;1.98;;;13.40;99.90;;;;;;5080217;28;20086;-82
2023/10/06 05:58:14;;;;;;;6.65;1.48;;;13.50;99.90;;;;;;5080003;28;20110;-82
2023/10/06 06:01:05;;;;;;;9.40;2.25;;;14.10;99.90;;;;;;5098754;28;20024;-83
2023/10/06 06:03:32;;;;;;;5.35;1.33;;;13.50;99.90;;;;;;5079810;28;20024;-78
2023/10/06 06:06:02;;;;;;;6.55;1.95;;;13.60;99.90;;;;;;5097032;28;20395;-78
2023/10/06 06:08:30;;;;;;;5.38;1.52;;;13.80;99.90;;;;;;5098002;28;20213;-78
2023/10/06 06:10:56;;;;;;;7.30;1.95;;;13.60;99.90;;;;;;5096990;28;20069;-78
2023/10/06 06:13:22;;;;;;;8.98;3.10;;;13.70;99.90;;;;;;5078781;28;20036;-78
2023/10/06 06:15:48;;;;;;;5.38;2.38;;;13.60;99.90;;;;;;5096751;28;20081;-79
2023/10/06 06:18:14;;;;;;;4.25;1.05;;;13.60;99.90;;;;;;5096826;28;20422;-78
2023/10/06 06:20:41;;;;;;;4.32;1.65;;;13.60;99.90;;;;;;5078052;28;20034;-78
2023/10/06 06:23:08;;;;;;;7.55;1.70;;;13.60;99.90;;;;;;5096734;28;20470;-78
2023/10/06 06:25:37;;;;;;;6.70;1.77;;;13.60;99.90;;;;;;5078229;28;20027;-78
2023/10/06 06:28:03;;;;;;;;;;;13.60;99.90;;;;;;5079262;28;20024;-78
2023/10/06 06:30:32;;;;;;;6.50;1.88;;;13.60;99.90;;;;;;5077980;28;20264;-79
2023/10/06 06:32:57;;;;;;;11.77;1.95;;;14.00;99.90;;;;;;5096594;28;20031;-78
2023/10/06 06:35:24;;;;;;;6.55;1.45;;;13.70;99.90;;;;;;5096210;28;20019;-78
2023/10/06 06:37:56;;;;;;;4.80;1.50;;;13.70;99.90;;;;;;5094730;28;20391;-76
2023/10/06 06:40:22;;;;;;;9.18;1.88;;;13.70;99.90;;;;;;5076277;28;20044;-76
2023/10/06 06:42:53;;;;;;;8.40;2.58;;;13.60;99.90;;;;;;5093975;28;20058;-75
2023/10/06 06:45:19;;;;;;;10.20;2.00;;;13.70;99.90;;;;;;5094145;28;20016;-76
2023/10/06 06:47:46;;;;;;;5.78;2.00;;;13.70;99.90;;;;;;5094186;28;20093;-75
2023/10/06 06:50:17;;;;;;;7.82;2.28;;;14.20;99.90;;;;;;5094212;28;20021;-75
2023/10/06 06:52:43;;;;;;;3.83;1.50;;;13.80;99.90;;;;;;5094061;28;20107;-75
2023/10/06 06:55:13;;;;;;;6.53;1.92;;;13.70;99.90;;;;;;5093928;28;20136;-76
2023/10/06 06:57:46;;;;;;;9.75;1.45;;;13.70;99.90;;;;;;5075625;28;20069;-75
2023/10/06 07:00:16;;;;;;;14.43;2.67;;;13.80;99.90;;;;;;5093960;28;20028;-76
2023/10/06 07:02:56;;;;;;;7.88;1.83;;;13.80;99.90;;;;;;5075667;28;20020;-75
2023/10/06 07:05:22;;;;;;;6.60;1.83;;;13.80;99.90;;;;;;5093789;28;20027;-76
2023/10/06 07:07:52;;;;;;;10.63;2.33;;;13.80;99.90;;;;;;5094426;28;20016;-76
2023/10/06 07:10:20;;;;;;;9.75;2.33;;;13.90;99.90;;;;;;5075662;28;20034;-75
2023/10/06 07:12:50;;;;;;;9.05;1.80;;;13.90;99.90;;;;;;5093807;28;20027;-76
2023/10/06 07:15:17;;;;;;;7.78;1.90;;;14.00;99.90;;;;;;5075474;28;20024;-76
2023/10/06 07:17:45;;;;;;;7.47;2.15;;;14.10;99.90;;;;;;5093573;28;20020;-76
2023/10/06 07:20:14;;;;;;;5.03;1.70;;;14.20;99.90;;;;;;5075468;28;20394;-76
2023/10/06 07:22:41;;;;;;;4.20;1.55;;;14.30;99.90;;;;;;5093482;28;20101;-76
2023/10/06 07:25:10;;;;;;;7.88;1.85;;;14.40;99.90;;;;;;5093481;28;20026;-76
2023/10/06 07:27:39;;;;;;;7.07;1.58;;;14.50;99.90;;;;;;5075470;28;20024;-75
2023/10/06 07:30:09;;;;;;;7.55;2.10;;;14.60;99.90;;;;;;5094066;28;20016;-75
2023/10/06 07:32:40;;;;;;;6.43;1.75;;;14.70;99.90;;;;;;5093497;28;20042;-76
2023/10/06 07:35:10;;;;;;;5.57;1.30;;;14.80;99.90;;;;;;5075178;28;20020;-76
2023/10/06 07:37:36;;;;;;;7.70;1.25;;;14.90;99.90;;;;;;5075220;28;20031;-75
2023/10/06 07:40:12;;;;;;;12.45;1.95;;;15.00;99.90;;;;;;5093271;28;20048;-75
2023/10/06 07:42:40;;;;;;;11.25;2.80;;;15.00;99.90;;;;;;5093803;28;20089;-75
2023/10/06 07:45:07;;;;;;;11.57;1.40;;;15.10;99.90;;;;;;5075084;28;20400;-75
2023/10/06 07:47:34;;;;;;;6.40;2.03;;;15.10;99.90;;;;;;5074991;28;20035;-74
2023/10/06 07:50:00;;;;;;;6.65;1.17;;;15.20;99.90;;;;;;5093226;28;20020;-75
2023/10/06 07:52:25;;;;;;;5.03;0.98;;;15.30;99.90;;;;;;5075050;28;20093;-75
2023/10/06 07:54:52;;;;;;;5.78;2.05;;;15.30;99.90;;;;;;5093002;28;20028;-75
2023/10/06 07:57:18;;;;;;;10.00;1.67;;;15.20;99.90;;;;;;5093131;28;20084;-75
2023/10/06 07:59:43;;;;;;;7.93;1.67;;;15.40;99.90;;;;;;5092960;28;20024;-75
2023/10/06 08:02:10;;;;;;;5.10;1.58;;;15.30;99.90;;;;;;5074923;28;20382;-75
2023/10/06 08:04:35;;;;;;;4.13;1.10;;;15.50;99.90;;;;;;5093528;28;20016;-75
2023/10/06 08:07:01;;;;;;;7.18;1.73;;;15.50;99.90;;;;;;5093596;28;20371;-75
2023/10/06 08:09:27;;;;;;;6.53;1.35;;;15.60;99.90;;;;;;5092985;28;20016;-75
2023/10/06 08:11:56;;;;;;;5.07;1.10;;;15.80;99.90;;;;;;5093066;28;20365;-75
2023/10/06 08:14:24;;;;;;;11.23;1.65;;;15.80;99.90;;;;;;5092994;28;20034;-75
2023/10/06 08:16:50;;;;;;;;;;;15.80;99.90;;;;;;5093318;28;20022;-75
2023/10/06 08:19:16;;;;;;;6.78;1.17;;;15.90;99.90;;;;;;5074784;28;19997;-76
2023/10/06 08:21:41;;;;;;;8.98;1.85;;;15.90;99.90;;;;;;5074796;28;20013;-75
2023/10/06 08:24:08;;;;;;;5.32;1.27;;;15.90;99.90;;;;;;5093386;28;20016;-75
2023/10/06 08:26:37;;;;;;;13.45;1.70;;;15.90;99.90;;;;;;5092800;28;20061;-75
2023/10/06 08:29:05;;;;;;;;;;;16.00;99.90;;;;;;5075250;28;20039;-74
2023/10/06 08:31:31;;;;;;;8.07;1.58;;;16.00;99.90;;;;;;5093929;28;19927;-75
2023/10/06 08:33:58;;;;;;;3.40;1.10;;;16.00;99.90;;;;;;5074758;28;20020;-75
2023/10/06 08:36:24;;;;;;;5.53;1.30;;;16.00;99.90;;;;;;5092667;28;20016;-75
2023/10/06 08:38:51;;;;;;;5.63;1.63;;;16.10;99.90;;;;;;5092667;28;20039;-75
2023/10/06 08:41:28;;;;;;;8.70;1.63;;;16.10;99.90;;;;;;5074649;28;20047;-75
2023/10/06 08:43:58;;;;;;;8.48;2.05;;;16.10;99.90;;;;;;5092671;28;20016;-74
2023/10/06 08:46:24;;;;;;;6.30;1.17;;;16.10;99.90;;;;;;5092733;28;20024;-75
2023/10/06 08:48:50;;;;;;;9.48;1.52;;;16.10;99.90;;;;;;5093086;28;20111;-75
2023/10/06 08:51:22;;;;;;;10.98;1.80;;;16.20;99.90;;;;;;5092586;28;20041;-75
2023/10/06 08:53:49;;;;;;;8.07;1.38;;;16.20;99.90;;;;;;5095760;28;20371;-75
2023/10/06 08:56:15;;;;;;;7.25;1.52;;;16.20;99.90;;;;;;5096115;28;20035;-75
2023/10/06 08:58:41;;;;;;;5.40;1.67;;;16.30;99.90;;;;;;5096703;28;20028;-75
2023/10/06 09:01:08;;;;;;;13.45;1.27;;;16.40;99.90;;;;;;5096825;28;20016;-75
2023/10/06 09:03:38;;;;;;;6.80;1.27;;;16.50;99.90;;;;;;5096305;28;20139;-75
2023/10/06 09:06:11;;;;;;;4.72;1.70;;;16.80;99.90;;;;;;5096079;28;20070;-75
2023/10/06 09:08:44;;;;;;;4.72;1.10;;;16.60;99.90;;;;;;5077637;28;20024;-75
2023/10/06 09:11:12;;;;;;;4.95;0.85;;;16.60;99.90;;;;;;5077845;28;20028;-75
2023/10/06 09:13:38;;;;;;;5.10;0.93;;;16.80;99.90;;;;;;5095887;28;20024;-75
2023/10/06 09:16:09;;;;;;;9.65;1.77;;;16.80;99.90;;;;;;5095843;28;20081;-75
2023/10/06 09:18:38;;;;;;;3.67;0.90;;;16.80;99.90;;;;;;5095940;28;20028;-75
2023/10/06 09:21:19;;;;;;;5.13;0.80;;;16.90;99.90;;;;;;5077666;28;20016;-75
2023/10/06 09:23:46;;;;;;;4.28;1.25;;;16.90;99.90;;;;;;5077691;28;20021;-75
2023/10/06 09:26:16;;;;;;;5.13;1.98;;;16.90;99.90;;;;;;5077608;28;20023;-75
2023/10/06 09:28:53;;;;;;;12.63;2.85;;;16.90;99.90;;;;;;5095725;28;20040;-75
2023/10/06 09:31:44;;;;;;;13.88;1.52;;;16.90;99.90;;;;;;5095653;28;20395;-75
2023/10/06 09:34:11;;;;;;;5.75;0.80;;;17.00;99.90;;;;;;5077477;28;20028;-75
2023/10/06 09:36:38;;;;;;;7.03;1.83;;;17.10;99.90;;;;;;5095541;28;20390;-75
2023/10/06 09:39:13;;;;;;;5.97;1.23;;;17.40;99.90;;;;;;5095403;28;20479;-75
2023/10/06 09:41:40;;;;;;;6.10;0.90;;;17.60;99.90;;;;;;5077360;28;20356;-75
2023/10/06 09:44:11;;;;;;;5.68;1.33;;;17.80;99.90;;;;;;5077264;28;20024;-75
2023/10/06 09:46:41;;;;;;;6.10;1.02;;;18.00;99.90;;;;;;5095410;28;20024;-75
2023/10/06 09:49:11;;;;;;;5.20;0.77;;;18.20;99.90;;;;;;5095812;28;20535;-75
2023/10/06 09:51:37;;;;;;;7.55;1.20;;;18.30;99.90;;;;;;5095854;28;20379;-75
2023/10/06 09:54:09;;;;;;;7.28;1.00;;;18.30;99.90;;;;;;5095354;28;20024;-75
2023/10/06 09:56:35;;;;;;;5.57;1.38;;;18.40;99.90;;;;;;5076892;28;20415;-75
2023/10/06 09:59:01;;;;;;;5.32;0.40;;;18.40;99.90;;;;;;5095303;28;20027;-75
2023/10/06 10:01:31;;;;;;;7.95;1.20;;;18.40;99.90;;;;;;5095070;28;20498;-75
2023/10/06 10:03:57;;;;;;;2.83;0.95;;;18.40;99.90;;;;;;5094151;28;20040;-75
2023/10/06 10:06:23;;;;;;;2.95;0.75;;;18.50;99.90;;;;;;5094664;28;20087;-75
2023/10/06 10:08:51;;;;;;;18.23;1.08;;;18.40;99.90;;;;;;5094901;28;20571;-75
2023/10/06 10:11:28;;;;;;;2.05;0.55;;;18.30;99.90;;;;;;5095135;28;20028;-75
2023/10/06 10:14:23;;;;;;;8.25;1.00;;;18.30;99.90;;;;;;5094777;28;20526;-75
2023/10/06 10:17:02;;;;;;;3.53;1.08;;;18.10;99.90;;;;;;5080421;28;20055;-75
2023/10/06 10:19:28;;;;;;;;;;;18.00;99.90;;;;;;5077018;28;20395;-75
2023/10/06 10:21:55;;;;;;;4.07;1.05;;;17.90;99.90;;;;;;5076477;28;19904;-75
2023/10/06 10:24:21;;;;;;;3.40;0.50;;;18.00;99.90;;;;;;5094504;28;20415;-75
2023/10/06 10:26:50;;;;;;;6.90;0.70;;;17.80;99.90;;;;;;5076359;28;20032;-75
2023/10/06 10:29:15;;;;;;;4.90;1.23;;;18.20;99.90;;;;;;5094386;28;20053;-75
2023/10/06 10:31:54;;;;;;;12.43;0.88;;;18.10;99.90;;;;;;5094407;28;20024;-75
2023/10/06 10:34:23;;;;;;;4.88;0.60;;;18.20;99.90;;;;;;5095687;28;20031;-78
2023/10/06 10:37:07;;;;;;;9.85;1.35;;;18.20;99.90;;;;;;5096372;28;20020;-78
2023/10/06 10:39:52;;;;;;;8.70;1.00;;;18.30;99.90;;;;;;5096168;28;20077;-78
2023/10/06 10:42:21;;;;;;;5.15;1.05;;;18.60;99.90;;;;;;5096415;28;20020;-78
2023/10/06 10:44:48;;;;;;;6.68;0.60;;;18.90;99.90;;;;;;5095743;28;20503;-78
2023/10/06 10:47:16;;;;;;;10.57;1.67;;;18.90;99.90;;;;;;5096153;28;20016;-78
2023/10/06 10:49:44;;;;;;;4.32;1.05;;;19.00;99.90;;;;;;5096184;28;20052;-78
2023/10/06 10:52:11;;;;;;;10.20;1.67;;;19.00;99.90;;;;;;5096059;28;20016;-78
2023/10/06 10:54:45;;;;;;;5.05;0.75;;;18.90;99.90;;;;;;5077572;28;20032;-78
2023/10/06 10:57:13;;;;;;;5.75;0.50;;;19.00;99.90;;;;;;5077669;28;20491;-78
2023/10/06 11:00:11;;;;;;;5.70;0.88;;;19.00;99.90;;;;;;5096108;28;20497;-78
2023/10/06 11:02:49;;;;;;;4.95;0.75;;;19.00;99.90;;;;;;5096023;28;20016;-78
2023/10/06 11:05:19;;;;;;;8.30;0.65;;;19.00;99.90;;;;;;5095802;28;20391;-78
2023/10/06 11:07:59;;;;;;;8.57;1.23;;;19.10;99.90;;;;;;5077659;28;20429;-78
2023/10/06 11:10:26;;;;;;;8.80;0.82;;;18.90;99.90;;;;;;5077874;28;20024;-78
2023/10/06 11:13:12;;;;;;;9.13;0.85;;;18.90;99.90;;;;;;5078107;28;20027;-78
2023/10/06 11:15:38;;;;;;;4.70;0.68;;;18.90;99.90;;;;;;5095527;28;20016;-78
2023/10/06 11:18:06;;;;;;;6.32;0.73;;;18.90;99.90;;;;;;5095441;28;20074;-78
2023/10/06 11:20:39;;;;;;;6.20;1.20;;;18.80;99.90;;;;;;5077583;28;20027;-78
2023/10/06 11:23:06;;;;;;;2.50;0.73;;;21.40;99.90;;;;;;5077801;28;20016;-78
2023/10/06 11:25:35;;;;;;;5.80;0.75;;;18.60;99.90;;;;;;5095694;28;20141;-78
2023/10/06 11:28:08;;;;;;;6.28;0.80;;;18.50;99.90;;;;;;5095930;28;20079;-78
2023/10/06 11:30:40;;;;;;;5.95;0.47;;;18.80;99.90;;;;;;5095504;28;20107;-78
2023/10/06 11:33:11;;;;;;;7.35;0.45;;;18.90;99.90;;;;;;5076629;28;20383;-78
2023/10/06 11:35:40;;;;;;;3.33;0.63;;;19.00;99.90;;;;;;5095158;28;20026;-78
2023/10/06 11:38:10;;;;;;;3.47;0.73;;;19.00;99.90;;;;;;5077072;28;20077;-78
2023/10/06 11:40:36;;;;;;;5.72;0.40;;;19.10;99.90;;;;;;5076366;28;20016;-78
2023/10/06 11:43:17;;;;;;;3.35;0.70;;;19.20;99.90;;;;;;5095144;28;20023;-78
2023/10/06 11:45:43;;;;;;;4.35;0.68;;;19.40;99.90;;;;;;5094775;28;20039;-78
2023/10/06 11:48:28;;;;;;;5.22;0.98;;;19.60;99.90;;;;;;5094691;28;20032;-78
2023/10/06 11:51:08;;;;;;;8.07;0.82;;;19.70;99.90;;;;;;5076910;28;20028;-78
2023/10/06 11:53:38;;;;;;;11.02;1.35;;;19.70;99.90;;;;;;5094664;28;20020;-78
2023/10/06 11:56:10;;;;;;;8.75;1.35;;;19.70;99.90;;;;;;5093993;28;20031;-78
2023/10/06 11:58:36;;;;;;;7.93;0.80;;;19.40;99.90;;;;;;5083248;28;20035;-78
2023/10/06 12:01:05;;;;;;;4.35;0.45;;;19.50;99.90;;;;;;5095491;28;20480;-79
2023/10/06 12:03:39;;;;;;;;;;;19.60;99.90;;;;;;5080919;28;20472;-79
2023/10/06 12:06:07;;;;;;;4.60;0.60;;;19.60;99.90;;;;;;5075385;28;19911;-79
2023/10/06 12:08:41;;;;;;;6.18;0.35;;;20.10;99.90;;;;;;5057517;28;20149;-79
2023/10/06 12:11:07;;;;;;;10.10;1.60;;;20.50;99.90;;;;;;5057779;28;20055;-79
2023/10/06 12:13:32;;;;;;;5.82;0.73;;;20.20;99.90;;;;;;5057989;28;20017;-79
2023/10/06 12:15:58;;;;;;;3.63;0.75;;;20.10;99.90;;;;;;5075691;28;20075;-80
2023/10/06 12:18:24;;;;;;;3.35;0.35;;;20.10;99.90;;;;;;5096240;28;20028;-79
2023/10/06 12:20:49;;;;;;;4.50;0.45;;;20.30;99.90;;;;;;5096886;28;20384;-80
2023/10/06 12:23:15;;;;;;;3.00;0.63;;;20.10;99.90;;;;;;5078010;28;20085;-79
2023/10/06 12:25:40;;;;;;;9.70;1.00;;;20.20;99.90;;;;;;5095755;28;20016;-80
2023/10/06 12:28:06;;;;;;;4.20;0.50;;;20.10;99.90;;;;;;5097047;28;20023;-79
2023/10/06 12:30:32;;;;;;;4.90;0.43;;;20.00;99.90;;;;;;5081842;28;20027;-79
2023/10/06 12:32:58;;;;;;;7.40;1.05;;;20.10;99.90;;;;;;5080648;28;20038;-79
2023/10/06 12:35:28;;;;;;;4.22;0.40;;;20.10;99.90;;;;;;5099070;28;20087;-79
2023/10/06 12:37:54;;;;;;;4.78;0.30;;;20.10;99.90;;;;;;5081703;28;20024;-79
2023/10/06 12:40:20;;;;;;;9.10;0.93;;;20.40;99.90;;;;;;5099890;28;20069;-79
2023/10/06 12:42:46;;;;;;;5.35;0.45;;;20.50;99.90;;;;;;5099422;28;20072;-80
2023/10/06 12:45:17;;;;;;;4.68;0.28;;;20.70;99.90;;;;;;5099411;28;20020;-80
2023/10/06 12:47:46;;;;;;;7.25;0.60;;;20.70;99.90;;;;;;5099399;28;20065;-80
2023/10/06 12:50:17;;;;;;;11.40;2.08;;;20.50;99.90;;;;;;5098614;28;20074;-79
2023/10/06 12:52:55;;;;;;;1.17;0.10;;;20.30;99.90;;;;;;5099079;28;20436;-79
2023/10/06 12:55:21;;;;;;;7.87;1.43;;;20.50;99.90;;;;;;5098273;28;20035;-79
2023/10/06 12:57:49;;;;;;;2.38;0.52;;;20.70;99.90;;;;;;5098544;28;20413;-79
2023/10/06 13:00:15;;;;;;;4.15;0.82;;;20.80;99.90;;;;;;5080567;28;20489;-79
2023/10/06 13:02:41;;;;;;;4.28;0.25;;;20.90;99.90;;;;;;5080167;28;20107;-79
2023/10/06 13:05:09;;;;;;;10.88;1.15;;;20.70;99.90;;;;;;5080826;28;20109;-79
2023/10/06 13:07:36;;;;;;;6.30;0.88;;;20.80;99.90;;;;;;5081940;28;20410;-79
2023/10/06 13:10:06;;;;;;;9.32;0.73;;;20.90;99.90;;;;;;5095474;28;20024;-79
2023/10/06 13:12:32;;;;;;;5.05;0.57;;;20.90;99.90;;;;;;5078274;28;20028;-80
2023/10/06 13:15:00;;;;;;;4.28;0.32;;;20.90;99.90;;;;;;5069823;28;20078;-79